sensor_id;sensor_type;location;lat;lon;timestamp;temperature;humidity
63899;HTU21D;50070;-32.946;-60.652;2022-10-16T00:01:21;15.08;78.09
63899;HTU21D;50070;-32.946;-60.652;2022-10-16T00:03:48;15.15;78.01
63899;HTU21D;50070;-32.946;-60.652;2022-10-16T00:06:17;15.16;78.05
63899;HTU21D;50070;-32.946;-60.652;2022-10-16T00:08:45;15.30;77.43
63899;HTU21D;50070;-32.946;-60.652;2022-10-16T00:11:23;14.97;79.08
63899;HTU21D;50070;-32.946;-60.652;2022-10-16T00:13:54;14.99;79.04
63899;HTU21D;50070;-32.946;-60.652;2022-10-16T00:16:20;14.96;79.09
63899;HTU21D;50070;-32.946;-60.652;2022-10-16T00:18:47;14.79;79.90
63899;HTU21D;50070;-32.946;-60.652;2022-10-16T00:21:20;14.73;80.27
63899;HTU21D;50070;-32.946;-60.652;2022-10-16T00:23:50;14.83;79.47
63899;HTU21D;50070;-32.946;-60.652;2022-10-16T00:26:18;14.77;79.54
63899;HTU21D;50070;-32.946;-60.652;2022-10-16T00:28:49;14.85;79.14
63899;HTU21D;50070;-32.946;-60.652;2022-10-16T00:31:17;14.86;78.95
63899;HTU21D;50070;-32.946;-60.652;2022-10-16T00:33:44;14.75;79.20
63899;HTU21D;50070;-32.946;-60.652;2022-10-16T00:36:11;14.94;78.59
63899;HTU21D;50070;-32.946;-60.652;2022-10-16T00:38:39;14.96;78.41
63899;HTU21D;50070;-32.946;-60.652;2022-10-16T00:41:06;14.86;78.59
63899;HTU21D;50070;-32.946;-60.652;2022-10-16T00:46:37;15.08;77.60
63899;HTU21D;50070;-32.946;-60.652;2022-10-16T00:49:11;14.89;78.26
63899;HTU21D;50070;-32.946;-60.652;2022-10-16T00:51:47;14.88;77.88
63899;HTU21D;50070;-32.946;-60.652;2022-10-16T00:54:41;14.75;78.59
63899;HTU21D;50070;-32.946;-60.652;2022-10-16T00:57:09;14.72;78.49
63899;HTU21D;50070;-32.946;-60.652;2022-10-16T00:59:40;14.73;78.40
63899;HTU21D;50070;-32.946;-60.652;2022-10-16T01:02:11;14.93;78.01
63899;HTU21D;50070;-32.946;-60.652;2022-10-16T01:04:51;14.94;77.63
63899;HTU21D;50070;-32.946;-60.652;2022-10-16T01:18:18;14.67;77.67
63899;HTU21D;50070;-32.946;-60.652;2022-10-16T01:20:53;14.56;78.01
63899;HTU21D;50070;-32.946;-60.652;2022-10-16T01:27:48;14.68;77.57
63899;HTU21D;50070;-32.946;-60.652;2022-10-16T01:29:52;14.85;76.75
63899;HTU21D;50070;-32.946;-60.652;2022-10-16T01:32:32;14.62;77.72
63899;HTU21D;50070;-32.946;-60.652;2022-10-16T01:40:32;14.93;76.47
63899;HTU21D;50070;-32.946;-60.652;2022-10-16T01:43:03;14.63;77.41
63899;HTU21D;50070;-32.946;-60.652;2022-10-16T01:45:32;14.80;76.88
63899;HTU21D;50070;-32.946;-60.652;2022-10-16T01:48:00;14.58;77.40
63899;HTU21D;50070;-32.946;-60.652;2022-10-16T01:50:34;14.66;77.16
63899;HTU21D;50070;-32.946;-60.652;2022-10-16T01:53:02;14.56;77.44
63899;HTU21D;50070;-32.946;-60.652;2022-10-16T01:55:35;14.68;76.46
63899;HTU21D;50070;-32.946;-60.652;2022-10-16T01:58:03;14.57;76.86
63899;HTU21D;50070;-32.946;-60.652;2022-10-16T02:00:31;14.65;76.50
63899;HTU21D;50070;-32.946;-60.652;2022-10-16T02:02:57;14.18;78.29
63899;HTU21D;50070;-32.946;-60.652;2022-10-16T02:05:36;14.19;78.24
63899;HTU21D;50070;-32.946;-60.652;2022-10-16T02:08:05;14.24;77.85
63899;HTU21D;50070;-32.946;-60.652;2022-10-16T02:10:35;14.20;78.03
63899;HTU21D;50070;-32.946;-60.652;2022-10-16T02:15:41;14.19;78.04
63899;HTU21D;50070;-32.946;-60.652;2022-10-16T02:18:08;14.12;78.49
63899;HTU21D;50070;-32.946;-60.652;2022-10-16T02:20:51;13.97;79.14
63899;HTU21D;50070;-32.946;-60.652;2022-10-16T02:23:50;14.28;77.92
63899;HTU21D;50070;-32.946;-60.652;2022-10-16T02:26:21;14.17;78.19
63899;HTU21D;50070;-32.946;-60.652;2022-10-16T02:28:54;14.01;78.84
63899;HTU21D;50070;-32.946;-60.652;2022-10-16T02:31:26;14.10;78.59
63899;HTU21D;50070;-32.946;-60.652;2022-10-16T02:33:57;14.17;78.11
63899;HTU21D;50070;-32.946;-60.652;2022-10-16T02:36:26;14.19;78.55
63899;HTU21D;50070;-32.946;-60.652;2022-10-16T02:38:53;14.12;78.53
63899;HTU21D;50070;-32.946;-60.652;2022-10-16T02:41:23;13.99;79.11
63899;HTU21D;50070;-32.946;-60.652;2022-10-16T02:43:50;13.71;80.36
63899;HTU21D;50070;-32.946;-60.652;2022-10-16T02:46:17;13.63;80.79
63899;HTU21D;50070;-32.946;-60.652;2022-10-16T02:48:44;13.65;80.72
63899;HTU21D;50070;-32.946;-60.652;2022-10-16T02:51:11;13.93;79.62
63899;HTU21D;50070;-32.946;-60.652;2022-10-16T02:53:38;14.10;78.84
63899;HTU21D;50070;-32.946;-60.652;2022-10-16T02:56:04;13.88;79.71
63899;HTU21D;50070;-32.946;-60.652;2022-10-16T02:58:31;14.04;78.90
63899;HTU21D;50070;-32.946;-60.652;2022-10-16T03:00:58;13.56;81.04
63899;HTU21D;50070;-32.946;-60.652;2022-10-16T03:03:24;13.67;80.24
63899;HTU21D;50070;-32.946;-60.652;2022-10-16T03:05:51;13.85;79.61
63899;HTU21D;50070;-32.946;-60.652;2022-10-16T03:08:18;13.79;79.88
63899;HTU21D;50070;-32.946;-60.652;2022-10-16T03:10:50;13.74;80.20
63899;HTU21D;50070;-32.946;-60.652;2022-10-16T03:13:17;13.73;80.18
63899;HTU21D;50070;-32.946;-60.652;2022-10-16T03:15:46;13.71;80.38
63899;HTU21D;50070;-32.946;-60.652;2022-10-16T03:18:15;13.54;80.94
63899;HTU21D;50070;-32.946;-60.652;2022-10-16T03:20:43;13.43;81.83
63899;HTU21D;50070;-32.946;-60.652;2022-10-16T03:23:09;13.54;81.44
63899;HTU21D;50070;-32.946;-60.652;2022-10-16T03:25:36;13.69;80.74
63899;HTU21D;50070;-32.946;-60.652;2022-10-16T03:28:03;13.73;80.49
63899;HTU21D;50070;-32.946;-60.652;2022-10-16T03:30:30;13.89;80.05
63899;HTU21D;50070;-32.946;-60.652;2022-10-16T03:32:59;13.82;80.27
63899;HTU21D;50070;-32.946;-60.652;2022-10-16T03:35:25;13.78;80.37
63899;HTU21D;50070;-32.946;-60.652;2022-10-16T03:37:52;13.65;81.35
63899;HTU21D;50070;-32.946;-60.652;2022-10-16T03:40:19;13.68;80.95
63899;HTU21D;50070;-32.946;-60.652;2022-10-16T03:42:45;13.61;81.56
63899;HTU21D;50070;-32.946;-60.652;2022-10-16T03:45:12;13.51;81.84
63899;HTU21D;50070;-32.946;-60.652;2022-10-16T03:47:39;13.15;83.93
63899;HTU21D;50070;-32.946;-60.652;2022-10-16T03:50:06;13.16;83.89
63899;HTU21D;50070;-32.946;-60.652;2022-10-16T03:52:32;13.19;83.81
63899;HTU21D;50070;-32.946;-60.652;2022-10-16T03:55:01;13.24;83.77
63899;HTU21D;50070;-32.946;-60.652;2022-10-16T03:57:28;13.30;83.48
63899;HTU21D;50070;-32.946;-60.652;2022-10-16T03:59:55;13.38;83.11
63899;HTU21D;50070;-32.946;-60.652;2022-10-16T04:02:21;13.48;82.75
63899;HTU21D;50070;-32.946;-60.652;2022-10-16T04:04:48;13.35;83.21
63899;HTU21D;50070;-32.946;-60.652;2022-10-16T04:07:18;13.59;82.36
63899;HTU21D;50070;-32.946;-60.652;2022-10-16T04:09:45;13.25;83.88
63899;HTU21D;50070;-32.946;-60.652;2022-10-16T04:12:19;13.49;82.62
63899;HTU21D;50070;-32.946;-60.652;2022-10-16T04:14:51;13.33;83.42
63899;HTU21D;50070;-32.946;-60.652;2022-10-16T04:17:17;13.08;84.81
63899;HTU21D;50070;-32.946;-60.652;2022-10-16T04:19:44;13.27;83.71
63899;HTU21D;50070;-32.946;-60.652;2022-10-16T04:22:10;13.35;83.49
63899;HTU21D;50070;-32.946;-60.652;2022-10-16T04:24:37;13.25;83.89
63899;HTU21D;50070;-32.946;-60.652;2022-10-16T04:27:04;13.25;84.07
63899;HTU21D;50070;-32.946;-60.652;2022-10-16T04:29:30;13.16;84.36
63899;HTU21D;50070;-32.946;-60.652;2022-10-16T04:31:57;13.40;83.32
63899;HTU21D;50070;-32.946;-60.652;2022-10-16T04:34:24;13.35;83.58
63899;HTU21D;50070;-32.946;-60.652;2022-10-16T04:36:50;13.20;84.64
63899;HTU21D;50070;-32.946;-60.652;2022-10-16T04:39:17;13.14;85.07
63899;HTU21D;50070;-32.946;-60.652;2022-10-16T04:41:44;13.24;84.34
63899;HTU21D;50070;-32.946;-60.652;2022-10-16T04:44:10;13.11;85.19
63899;HTU21D;50070;-32.946;-60.652;2022-10-16T04:46:37;12.96;85.87
63899;HTU21D;50070;-32.946;-60.652;2022-10-16T04:49:04;12.89;86.36
63899;HTU21D;50070;-32.946;-60.652;2022-10-16T04:51:31;12.93;85.80
63899;HTU21D;50070;-32.946;-60.652;2022-10-16T04:53:57;13.17;84.97
63899;HTU21D;50070;-32.946;-60.652;2022-10-16T04:56:24;13.04;85.38
63899;HTU21D;50070;-32.946;-60.652;2022-10-16T04:58:51;12.77;86.53
63899;HTU21D;50070;-32.946;-60.652;2022-10-16T05:01:17;12.99;85.63
63899;HTU21D;50070;-32.946;-60.652;2022-10-16T05:03:44;12.70;86.74
63899;HTU21D;50070;-32.946;-60.652;2022-10-16T05:06:11;12.48;87.85
63899;HTU21D;50070;-32.946;-60.652;2022-10-16T05:08:37;12.70;86.73
63899;HTU21D;50070;-32.946;-60.652;2022-10-16T05:11:04;12.49;87.64
63899;HTU21D;50070;-32.946;-60.652;2022-10-16T05:13:31;12.75;86.70
63899;HTU21D;50070;-32.946;-60.652;2022-10-16T05:15:57;12.60;86.73
63899;HTU21D;50070;-32.946;-60.652;2022-10-16T05:18:24;12.62;86.93
63899;HTU21D;50070;-32.946;-60.652;2022-10-16T05:20:51;12.58;86.59
63899;HTU21D;50070;-32.946;-60.652;2022-10-16T05:23:17;12.53;87.06
63899;HTU21D;50070;-32.946;-60.652;2022-10-16T05:25:52;12.45;87.51
63899;HTU21D;50070;-32.946;-60.652;2022-10-16T05:28:21;12.69;86.58
63899;HTU21D;50070;-32.946;-60.652;2022-10-16T05:30:48;12.47;87.35
63899;HTU21D;50070;-32.946;-60.652;2022-10-16T05:33:14;12.62;86.83
63899;HTU21D;50070;-32.946;-60.652;2022-10-16T05:35:43;12.49;87.50
63899;HTU21D;50070;-32.946;-60.652;2022-10-16T05:38:10;12.49;87.67
63899;HTU21D;50070;-32.946;-60.652;2022-10-16T05:40:36;12.67;87.28
63899;HTU21D;50070;-32.946;-60.652;2022-10-16T05:43:03;12.80;86.16
63899;HTU21D;50070;-32.946;-60.652;2022-10-16T05:45:30;12.79;86.46
63899;HTU21D;50070;-32.946;-60.652;2022-10-16T05:47:57;12.86;86.17
63899;HTU21D;50070;-32.946;-60.652;2022-10-16T05:50:24;12.90;86.09
63899;HTU21D;50070;-32.946;-60.652;2022-10-16T05:52:50;13.04;85.48
63899;HTU21D;50070;-32.946;-60.652;2022-10-16T05:55:17;12.99;85.32
63899;HTU21D;50070;-32.946;-60.652;2022-10-16T05:57:44;12.95;85.42
63899;HTU21D;50070;-32.946;-60.652;2022-10-16T06:00:10;12.62;87.66
63899;HTU21D;50070;-32.946;-60.652;2022-10-16T06:02:37;12.61;87.57
63899;HTU21D;50070;-32.946;-60.652;2022-10-16T06:05:04;12.86;86.63
63899;HTU21D;50070;-32.946;-60.652;2022-10-16T06:07:34;12.75;87.44
63899;HTU21D;50070;-32.946;-60.652;2022-10-16T06:10:02;12.86;87.19
63899;HTU21D;50070;-32.946;-60.652;2022-10-16T06:12:30;12.73;88.02
63899;HTU21D;50070;-32.946;-60.652;2022-10-16T06:14:56;12.90;87.25
63899;HTU21D;50070;-32.946;-60.652;2022-10-16T06:17:23;12.74;88.06
63899;HTU21D;50070;-32.946;-60.652;2022-10-16T06:19:49;12.69;88.73
63899;HTU21D;50070;-32.946;-60.652;2022-10-16T06:22:16;12.42;90.50
63899;HTU21D;50070;-32.946;-60.652;2022-10-16T06:24:43;12.58;89.79
63899;HTU21D;50070;-32.946;-60.652;2022-10-16T06:27:09;12.75;89.26
63899;HTU21D;50070;-32.946;-60.652;2022-10-16T06:29:36;12.72;89.34
63899;HTU21D;50070;-32.946;-60.652;2022-10-16T06:32:03;12.90;88.30
63899;HTU21D;50070;-32.946;-60.652;2022-10-16T06:34:29;12.60;89.95
63899;HTU21D;50070;-32.946;-60.652;2022-10-16T06:36:56;12.58;90.08
63899;HTU21D;50070;-32.946;-60.652;2022-10-16T06:39:23;12.90;89.00
63899;HTU21D;50070;-32.946;-60.652;2022-10-16T06:41:49;12.73;89.60
63899;HTU21D;50070;-32.946;-60.652;2022-10-16T06:44:15;12.77;89.76
63899;HTU21D;50070;-32.946;-60.652;2022-10-16T06:46:42;12.85;89.02
63899;HTU21D;50070;-32.946;-60.652;2022-10-16T06:49:09;12.79;89.38
63899;HTU21D;50070;-32.946;-60.652;2022-10-16T06:51:35;12.96;88.58
63899;HTU21D;50070;-32.946;-60.652;2022-10-16T06:54:06;12.86;88.75
63899;HTU21D;50070;-32.946;-60.652;2022-10-16T06:56:34;12.99;87.94
63899;HTU21D;50070;-32.946;-60.652;2022-10-16T06:59:01;13.06;87.48
63899;HTU21D;50070;-32.946;-60.652;2022-10-16T07:01:28;13.18;86.96
63899;HTU21D;50070;-32.946;-60.652;2022-10-16T07:03:58;13.08;87.15
63899;HTU21D;50070;-32.946;-60.652;2022-10-16T07:06:26;13.20;86.42
63899;HTU21D;50070;-32.946;-60.652;2022-10-16T07:08:53;13.21;86.29
63899;HTU21D;50070;-32.946;-60.652;2022-10-16T07:11:23;13.29;85.73
63899;HTU21D;50070;-32.946;-60.652;2022-10-16T07:13:50;13.02;87.44
63899;HTU21D;50070;-32.946;-60.652;2022-10-16T07:16:20;13.26;86.77
63899;HTU21D;50070;-32.946;-60.652;2022-10-16T07:18:47;13.30;86.42
63899;HTU21D;50070;-32.946;-60.652;2022-10-16T07:21:17;13.14;87.55
63899;HTU21D;50070;-32.946;-60.652;2022-10-16T07:23:45;13.12;87.86
63899;HTU21D;50070;-32.946;-60.652;2022-10-16T07:26:12;13.44;86.03
63899;HTU21D;50070;-32.946;-60.652;2022-10-16T07:28:39;13.27;86.97
63899;HTU21D;50070;-32.946;-60.652;2022-10-16T07:31:11;13.50;85.93
63899;HTU21D;50070;-32.946;-60.652;2022-10-16T07:33:41;13.48;85.75
63899;HTU21D;50070;-32.946;-60.652;2022-10-16T07:36:11;13.29;86.57
63899;HTU21D;50070;-32.946;-60.652;2022-10-16T07:38:38;13.04;88.00
63899;HTU21D;50070;-32.946;-60.652;2022-10-16T07:41:07;13.02;88.30
63899;HTU21D;50070;-32.946;-60.652;2022-10-16T07:43:34;12.69;90.30
63899;HTU21D;50070;-32.946;-60.652;2022-10-16T07:46:00;13.12;87.93
63899;HTU21D;50070;-32.946;-60.652;2022-10-16T07:48:29;13.37;86.41
63899;HTU21D;50070;-32.946;-60.652;2022-10-16T07:51:04;13.17;87.12
63899;HTU21D;50070;-32.946;-60.652;2022-10-16T07:53:31;13.02;87.90
63899;HTU21D;50070;-32.946;-60.652;2022-10-16T07:56:05;13.22;86.66
63899;HTU21D;50070;-32.946;-60.652;2022-10-16T07:58:33;13.33;86.41
63899;HTU21D;50070;-32.946;-60.652;2022-10-16T08:01:08;13.56;84.75
63899;HTU21D;50070;-32.946;-60.652;2022-10-16T08:03:35;13.37;85.42
63899;HTU21D;50070;-32.946;-60.652;2022-10-16T08:06:03;13.20;86.28
63899;HTU21D;50070;-32.946;-60.652;2022-10-16T08:08:30;12.80;88.02
63899;HTU21D;50070;-32.946;-60.652;2022-10-16T08:10:57;12.77;88.18
63899;HTU21D;50070;-32.946;-60.652;2022-10-16T08:13:24;12.94;87.61
63899;HTU21D;50070;-32.946;-60.652;2022-10-16T08:15:50;13.01;86.62
63899;HTU21D;50070;-32.946;-60.652;2022-10-16T08:18:17;12.75;87.75
63899;HTU21D;50070;-32.946;-60.652;2022-10-16T08:20:44;12.89;87.06
63899;HTU21D;50070;-32.946;-60.652;2022-10-16T08:23:13;12.92;87.03
63899;HTU21D;50070;-32.946;-60.652;2022-10-16T08:25:41;12.86;87.05
63899;HTU21D;50070;-32.946;-60.652;2022-10-16T08:28:09;12.88;87.19
63899;HTU21D;50070;-32.946;-60.652;2022-10-16T08:30:36;12.99;86.77
63899;HTU21D;50070;-32.946;-60.652;2022-10-16T08:33:02;12.85;87.17
63899;HTU21D;50070;-32.946;-60.652;2022-10-16T08:35:29;13.01;86.40
63899;HTU21D;50070;-32.946;-60.652;2022-10-16T08:37:56;13.02;87.01
63899;HTU21D;50070;-32.946;-60.652;2022-10-16T08:40:28;12.93;87.16
63899;HTU21D;50070;-32.946;-60.652;2022-10-16T08:43:14;12.88;86.77
63899;HTU21D;50070;-32.946;-60.652;2022-10-16T08:48:47;13.07;86.60
63899;HTU21D;50070;-32.946;-60.652;2022-10-16T08:51:25;12.99;87.12
63899;HTU21D;50070;-32.946;-60.652;2022-10-16T08:54:04;13.06;86.38
63899;HTU21D;50070;-32.946;-60.652;2022-10-16T08:56:31;13.07;86.40
63899;HTU21D;50070;-32.946;-60.652;2022-10-16T08:58:59;12.97;87.00
63899;HTU21D;50070;-32.946;-60.652;2022-10-16T09:01:38;13.03;86.53
63899;HTU21D;50070;-32.946;-60.652;2022-10-16T09:18:19;12.90;87.19
63899;HTU21D;50070;-32.946;-60.652;2022-10-16T09:23:35;12.72;88.05
63899;HTU21D;50070;-32.946;-60.652;2022-10-16T09:26:04;12.64;89.31
63899;HTU21D;50070;-32.946;-60.652;2022-10-16T09:28:31;12.82;88.09
63899;HTU21D;50070;-32.946;-60.652;2022-10-16T09:30:58;12.52;88.70
63899;HTU21D;50070;-32.946;-60.652;2022-10-16T09:33:37;12.44;89.30
63899;HTU21D;50070;-32.946;-60.652;2022-10-16T09:36:05;12.95;86.99
63899;HTU21D;50070;-32.946;-60.652;2022-10-16T09:38:34;12.73;87.89
63899;HTU21D;50070;-32.946;-60.652;2022-10-16T09:41:24;12.87;87.67
63899;HTU21D;50070;-32.946;-60.652;2022-10-16T09:43:56;12.51;89.21
63899;HTU21D;50070;-32.946;-60.652;2022-10-16T09:46:36;12.46;89.02
63899;HTU21D;50070;-32.946;-60.652;2022-10-16T09:49:05;12.51;88.66
63899;HTU21D;50070;-32.946;-60.652;2022-10-16T09:51:37;12.58;88.53
63899;HTU21D;50070;-32.946;-60.652;2022-10-16T09:56:34;12.60;88.27
63899;HTU21D;50070;-32.946;-60.652;2022-10-16T09:59:23;12.67;87.57
63899;HTU21D;50070;-32.946;-60.652;2022-10-16T10:01:55;12.93;86.49
63899;HTU21D;50070;-32.946;-60.652;2022-10-16T10:04:25;13.08;85.70
63899;HTU21D;50070;-32.946;-60.652;2022-10-16T10:06:56;12.96;85.64
63899;HTU21D;50070;-32.946;-60.652;2022-10-16T10:09:36;13.19;83.97
63899;HTU21D;50070;-32.946;-60.652;2022-10-16T10:12:05;13.39;83.22
63899;HTU21D;50070;-32.946;-60.652;2022-10-16T10:19:51;12.78;87.29
63899;HTU21D;50070;-32.946;-60.652;2022-10-16T10:30:52;13.10;84.93
63899;HTU21D;50070;-32.946;-60.652;2022-10-16T10:36:37;13.22;84.68
63899;HTU21D;50070;-32.946;-60.652;2022-10-16T10:39:17;13.22;84.86
63899;HTU21D;50070;-32.946;-60.652;2022-10-16T10:44:18;12.97;86.61
63899;HTU21D;50070;-32.946;-60.652;2022-10-16T10:47:01;12.91;86.80
63899;HTU21D;50070;-32.946;-60.652;2022-10-16T10:57:48;13.07;85.89
63899;HTU21D;50070;-32.946;-60.652;2022-10-16T11:00:37;13.24;85.09
63899;HTU21D;50070;-32.946;-60.652;2022-10-16T11:05:49;13.35;84.50
63899;HTU21D;50070;-32.946;-60.652;2022-10-16T11:08:31;13.46;84.31
63899;HTU21D;50070;-32.946;-60.652;2022-10-16T11:19:46;13.69;83.58
63899;HTU21D;50070;-32.946;-60.652;2022-10-16T11:25:33;13.71;83.51
63899;HTU21D;50070;-32.946;-60.652;2022-10-16T11:33:47;13.93;82.97
63899;HTU21D;50070;-32.946;-60.652;2022-10-16T11:36:23;13.97;82.43
63899;HTU21D;50070;-32.946;-60.652;2022-10-16T11:49:57;13.74;83.21
63899;HTU21D;50070;-32.946;-60.652;2022-10-16T11:55:27;13.93;82.51
63899;HTU21D;50070;-32.946;-60.652;2022-10-16T11:58:08;14.15;81.74
63899;HTU21D;50070;-32.946;-60.652;2022-10-16T12:01:05;14.06;82.24
63899;HTU21D;50070;-32.946;-60.652;2022-10-16T12:03:43;13.70;83.43
63899;HTU21D;50070;-32.946;-60.652;2022-10-16T12:09:27;14.28;80.88
63899;HTU21D;50070;-32.946;-60.652;2022-10-16T12:11:56;14.26;81.10
63899;HTU21D;50070;-32.946;-60.652;2022-10-16T12:14:38;14.36;80.51
63899;HTU21D;50070;-32.946;-60.652;2022-10-16T12:17:22;14.37;79.82
63899;HTU21D;50070;-32.946;-60.652;2022-10-16T12:20:01;14.52;79.21
63899;HTU21D;50070;-32.946;-60.652;2022-10-16T12:22:29;14.80;78.34
63899;HTU21D;50070;-32.946;-60.652;2022-10-16T12:24:57;15.15;76.86
63899;HTU21D;50070;-32.946;-60.652;2022-10-16T12:27:33;15.03;77.11
63899;HTU21D;50070;-32.946;-60.652;2022-10-16T12:30:04;14.91;77.95
63899;HTU21D;50070;-32.946;-60.652;2022-10-16T12:32:36;14.65;79.53
63899;HTU21D;50070;-32.946;-60.652;2022-10-16T12:35:05;14.73;79.35
63899;HTU21D;50070;-32.946;-60.652;2022-10-16T12:37:42;14.94;78.50
63899;HTU21D;50070;-32.946;-60.652;2022-10-16T12:42:58;15.24;77.27
63899;HTU21D;50070;-32.946;-60.652;2022-10-16T12:45:29;15.32;77.60
63899;HTU21D;50070;-32.946;-60.652;2022-10-16T12:47:59;15.52;76.82
63899;HTU21D;50070;-32.946;-60.652;2022-10-16T12:50:38;15.52;76.79
63899;HTU21D;50070;-32.946;-60.652;2022-10-16T12:53:24;15.18;78.08
63899;HTU21D;50070;-32.946;-60.652;2022-10-16T13:07:48;15.53;74.84
63899;HTU21D;50070;-32.946;-60.652;2022-10-16T13:10:28;15.42;75.74
63899;HTU21D;50070;-32.946;-60.652;2022-10-16T13:21:44;15.75;75.38
63899;HTU21D;50070;-32.946;-60.652;2022-10-16T13:24:19;16.00;73.75
63899;HTU21D;50070;-32.946;-60.652;2022-10-16T13:26:53;15.77;74.25
63899;HTU21D;50070;-32.946;-60.652;2022-10-16T13:29:22;16.12;72.37
63899;HTU21D;50070;-32.946;-60.652;2022-10-16T13:31:49;15.90;73.48
63899;HTU21D;50070;-32.946;-60.652;2022-10-16T13:34:19;16.06;72.88
63899;HTU21D;50070;-32.946;-60.652;2022-10-16T13:36:49;16.27;72.15
63899;HTU21D;50070;-32.946;-60.652;2022-10-16T13:39:23;16.41;71.03
63899;HTU21D;50070;-32.946;-60.652;2022-10-16T13:42:03;16.51;70.87
63899;HTU21D;50070;-32.946;-60.652;2022-10-16T13:44:51;16.63;70.64
63899;HTU21D;50070;-32.946;-60.652;2022-10-16T13:47:20;16.78;69.97
63899;HTU21D;50070;-32.946;-60.652;2022-10-16T13:49:59;16.46;71.67
63899;HTU21D;50070;-32.946;-60.652;2022-10-16T13:52:27;16.26;72.77
63899;HTU21D;50070;-32.946;-60.652;2022-10-16T13:54:56;16.51;72.06
63899;HTU21D;50070;-32.946;-60.652;2022-10-16T13:57:24;16.61;71.93
63899;HTU21D;50070;-32.946;-60.652;2022-10-16T13:59:53;16.76;71.30
63899;HTU21D;50070;-32.946;-60.652;2022-10-16T14:02:28;17.97;67.34
63899;HTU21D;50070;-32.946;-60.652;2022-10-16T14:04:57;18.34;65.46
63899;HTU21D;50070;-32.946;-60.652;2022-10-16T14:07:26;19.54;61.50
63899;HTU21D;50070;-32.946;-60.652;2022-10-16T14:09:55;20.09;59.06
63899;HTU21D;50070;-32.946;-60.652;2022-10-16T14:12:22;19.35;62.15
63899;HTU21D;50070;-32.946;-60.652;2022-10-16T14:14:52;20.54;58.13
63899;HTU21D;50070;-32.946;-60.652;2022-10-16T14:17:25;19.88;60.93
63899;HTU21D;50070;-32.946;-60.652;2022-10-16T14:19:55;20.33;58.21
63899;HTU21D;50070;-32.946;-60.652;2022-10-16T14:24:53;20.90;56.83
63899;HTU21D;50070;-32.946;-60.652;2022-10-16T14:27:36;19.52;61.18
63899;HTU21D;50070;-32.946;-60.652;2022-10-16T14:30:22;20.02;60.15
63899;HTU21D;50070;-32.946;-60.652;2022-10-16T14:33:04;19.72;60.70
63899;HTU21D;50070;-32.946;-60.652;2022-10-16T14:35:33;20.58;58.05
63899;HTU21D;50070;-32.946;-60.652;2022-10-16T14:38:02;20.94;56.82
63899;HTU21D;50070;-32.946;-60.652;2022-10-16T14:40:31;19.73;60.15
63899;HTU21D;50070;-32.946;-60.652;2022-10-16T14:42:59;19.65;60.49
63899;HTU21D;50070;-32.946;-60.652;2022-10-16T14:45:29;20.91;57.33
63899;HTU21D;50070;-32.946;-60.652;2022-10-16T14:48:05;21.48;54.20
63899;HTU21D;50070;-32.946;-60.652;2022-10-16T14:50:33;21.06;55.57
63899;HTU21D;50070;-32.946;-60.652;2022-10-16T14:52:59;20.34;58.25
63899;HTU21D;50070;-32.946;-60.652;2022-10-16T14:55:28;20.72;56.81
63899;HTU21D;50070;-32.946;-60.652;2022-10-16T14:57:55;20.00;60.07
63899;HTU21D;50070;-32.946;-60.652;2022-10-16T15:00:23;20.50;58.64
63899;HTU21D;50070;-32.946;-60.652;2022-10-16T15:02:51;21.08;55.79
63899;HTU21D;50070;-32.946;-60.652;2022-10-16T15:05:18;22.04;53.52
63899;HTU21D;50070;-32.946;-60.652;2022-10-16T15:07:46;21.97;53.01
63899;HTU21D;50070;-32.946;-60.652;2022-10-16T15:10:14;21.91;53.46
63899;HTU21D;50070;-32.946;-60.652;2022-10-16T15:12:41;22.67;51.30
63899;HTU21D;50070;-32.946;-60.652;2022-10-16T15:15:39;22.18;52.82
63899;HTU21D;50070;-32.946;-60.652;2022-10-16T15:18:06;21.72;53.23
63899;HTU21D;50070;-32.946;-60.652;2022-10-16T15:20:34;20.72;56.55
63899;HTU21D;50070;-32.946;-60.652;2022-10-16T15:23:09;21.29;55.07
63899;HTU21D;50070;-32.946;-60.652;2022-10-16T15:25:46;21.13;55.75
63899;HTU21D;50070;-32.946;-60.652;2022-10-16T15:28:14;21.70;54.32
63899;HTU21D;50070;-32.946;-60.652;2022-10-16T15:30:42;22.05;53.15
63899;HTU21D;50070;-32.946;-60.652;2022-10-16T15:33:18;21.51;54.14
63899;HTU21D;50070;-32.946;-60.652;2022-10-16T15:35:49;21.76;53.36
63899;HTU21D;50070;-32.946;-60.652;2022-10-16T15:38:18;20.87;55.65
63899;HTU21D;50070;-32.946;-60.652;2022-10-16T15:40:46;20.56;56.38
63899;HTU21D;50070;-32.946;-60.652;2022-10-16T15:43:13;20.64;56.23
63899;HTU21D;50070;-32.946;-60.652;2022-10-16T15:45:40;21.15;55.02
63899;HTU21D;50070;-32.946;-60.652;2022-10-16T15:48:09;20.93;55.52
63899;HTU21D;50070;-32.946;-60.652;2022-10-16T15:50:37;21.77;53.01
63899;HTU21D;50070;-32.946;-60.652;2022-10-16T15:53:04;21.37;53.41
63899;HTU21D;50070;-32.946;-60.652;2022-10-16T15:55:31;21.32;53.43
63899;HTU21D;50070;-32.946;-60.652;2022-10-16T15:57:58;21.17;54.40
63899;HTU21D;50070;-32.946;-60.652;2022-10-16T16:00:24;21.21;53.82
63899;HTU21D;50070;-32.946;-60.652;2022-10-16T16:02:52;21.27;54.02
63899;HTU21D;50070;-32.946;-60.652;2022-10-16T16:05:20;21.16;53.30
63899;HTU21D;50070;-32.946;-60.652;2022-10-16T16:07:48;21.95;52.05
63899;HTU21D;50070;-32.946;-60.652;2022-10-16T16:10:17;21.45;51.96
63899;HTU21D;50070;-32.946;-60.652;2022-10-16T16:12:49;21.79;49.97
63899;HTU21D;50070;-32.946;-60.652;2022-10-16T16:15:20;22.36;48.69
63899;HTU21D;50070;-32.946;-60.652;2022-10-16T16:17:48;22.34;48.52
63899;HTU21D;50070;-32.946;-60.652;2022-10-16T16:20:15;22.14;48.46
63899;HTU21D;50070;-32.946;-60.652;2022-10-16T16:22:41;23.01;45.58
63899;HTU21D;50070;-32.946;-60.652;2022-10-16T16:25:08;22.82;45.49
63899;HTU21D;50070;-32.946;-60.652;2022-10-16T16:27:35;23.02;45.52
63899;HTU21D;50070;-32.946;-60.652;2022-10-16T16:30:06;23.21;44.31
63899;HTU21D;50070;-32.946;-60.652;2022-10-16T16:32:34;23.58;43.87
63899;HTU21D;50070;-32.946;-60.652;2022-10-16T16:35:01;23.65;43.90
63899;HTU21D;50070;-32.946;-60.652;2022-10-16T16:37:28;23.21;44.46
63899;HTU21D;50070;-32.946;-60.652;2022-10-16T16:39:55;23.09;43.62
63899;HTU21D;50070;-32.946;-60.652;2022-10-16T16:42:25;23.11;43.84
63899;HTU21D;50070;-32.946;-60.652;2022-10-16T16:44:52;22.22;46.56
63899;HTU21D;50070;-32.946;-60.652;2022-10-16T16:47:18;22.77;45.39
63899;HTU21D;50070;-32.946;-60.652;2022-10-16T16:49:45;23.01;45.19
63899;HTU21D;50070;-32.946;-60.652;2022-10-16T16:52:13;22.88;45.12
63899;HTU21D;50070;-32.946;-60.652;2022-10-16T16:54:40;22.71;45.57
63899;HTU21D;50070;-32.946;-60.652;2022-10-16T16:57:06;22.48;46.45
63899;HTU21D;50070;-32.946;-60.652;2022-10-16T16:59:33;22.50;46.64
63899;HTU21D;50070;-32.946;-60.652;2022-10-16T17:02:00;22.23;46.77
63899;HTU21D;50070;-32.946;-60.652;2022-10-16T17:04:27;23.00;45.25
63899;HTU21D;50070;-32.946;-60.652;2022-10-16T17:06:54;23.25;44.37
63899;HTU21D;50070;-32.946;-60.652;2022-10-16T17:09:21;22.80;44.16
63899;HTU21D;50070;-32.946;-60.652;2022-10-16T17:11:48;23.12;43.80